createdAt,value
2019-05-18T00:02:00.524Z,67.65
2019-05-18T00:04:34.683Z,67.53
2019-05-18T00:07:03.395Z,67.28
2019-05-18T00:09:32.155Z,67.60
2019-05-18T00:12:01.879Z,67.93
2019-05-18T00:14:39.719Z,68.44
2019-05-18T00:17:24.561Z,68.64
2019-05-18T00:20:02.195Z,68.81
2019-05-18T00:22:30.873Z,68.74
2019-05-18T00:24:59.617Z,68.46
2019-05-18T00:27:28.391Z,69.62
2019-05-18T00:29:57.077Z,69.47
2019-05-18T00:32:28.472Z,69.63
2019-05-18T00:35:04.945Z,69.60
2019-05-18T00:37:37.787Z,69.94
2019-05-18T00:40:09.999Z,69.31
2019-05-18T00:42:43.082Z,69.30
2019-05-18T00:45:17.115Z,68.34
2019-05-18T00:47:49.934Z,68.17
2019-05-18T00:50:18.755Z,67.40
2019-05-18T00:52:48.986Z,68.08
2019-05-18T00:55:21.637Z,67.92
2019-05-18T00:57:52.271Z,67.75
2019-05-18T01:00:32.337Z,68.04
2019-05-18T01:03:08.085Z,67.92
2019-05-18T01:05:43.873Z,68.07
2019-05-18T01:08:14.052Z,68.10
2019-05-18T01:10:43.877Z,67.57
2019-05-18T01:13:12.992Z,68.23
2019-05-18T01:15:41.706Z,67.06
2019-05-18T01:18:13.270Z,67.80
2019-05-18T01:20:42.097Z,67.73
2019-05-18T01:23:17.677Z,67.08
2019-05-18T01:25:47.913Z,67.44
2019-05-18T01:28:23.908Z,66.94
2019-05-18T01:30:50.269Z,67.60
2019-05-18T01:33:20.418Z,66.58
2019-05-18T01:35:53.825Z,67.04
2019-05-18T01:38:29.407Z,67.99
2019-05-18T01:41:02.599Z,68.86
2019-05-18T01:43:35.981Z,68.80
2019-05-18T01:46:08.949Z,68.88
2019-05-18T01:48:40.689Z,68.21
2019-05-18T01:51:12.033Z,69.55
2019-05-18T01:53:43.065Z,70.07
2019-05-18T01:56:20.581Z,66.99
2019-05-18T01:58:49.414Z,67.76
2019-05-18T02:01:18.071Z,68.86
2019-05-18T02:03:49.833Z,68.39
2019-05-18T02:06:18.603Z,68.29
2019-05-18T02:08:47.338Z,68.95
2019-05-18T02:11:16.063Z,68.27
2019-05-18T02:13:47.816Z,68.59
2019-05-18T02:16:16.534Z,68.74
2019-05-18T02:18:45.121Z,69.19
2019-05-18T02:21:16.892Z,68.95
2019-05-18T02:23:45.658Z,70.42
2019-05-18T02:26:17.505Z,69.73
2019-05-18T02:28:52.850Z,68.28
2019-05-18T02:31:25.776Z,68.28
2019-05-18T02:33:52.089Z,68.51
2019-05-18T02:36:25.073Z,69.09
2019-05-18T02:38:57.686Z,68.75
2019-05-18T02:41:29.097Z,68.90
2019-05-18T02:44:08.033Z,69.76
2019-05-18T02:46:28.234Z,71.44
2019-05-18T02:48:57.013Z,68.55
2019-05-18T02:51:28.586Z,68.80
2019-05-18T02:53:57.304Z,70.47
2019-05-18T02:56:26.060Z,67.65
2019-05-18T02:58:54.799Z,68.92
2019-05-18T03:01:23.467Z,70.22
2019-05-18T03:03:53.582Z,70.90
2019-05-18T03:06:26.611Z,70.77
2019-05-18T03:08:55.456Z,70.54
2019-05-18T03:11:24.230Z,70.32
2019-05-18T03:13:52.902Z,69.89
2019-05-18T03:16:29.049Z,70.31
2019-05-18T03:19:08.215Z,69.44
2019-05-18T03:21:29.754Z,72.14
2019-05-18T03:24:14.976Z,71.93
2019-05-18T03:26:47.920Z,70.97
2019-05-18T03:29:35.178Z,69.66
2019-05-18T03:32:03.828Z,68.67
2019-05-18T03:34:34.025Z,67.65
2019-05-18T03:37:04.377Z,67.23
2019-05-18T03:39:33.142Z,66.69
2019-05-18T03:42:03.272Z,67.64
2019-05-18T03:44:32.064Z,66.77
2019-05-18T03:47:09.527Z,66.93
2019-05-18T03:49:48.783Z,65.96
2019-05-18T03:52:23.388Z,66.31
2019-05-18T03:54:52.794Z,66.97
2019-05-18T03:57:21.550Z,66.33
2019-05-18T03:59:50.273Z,66.70
2019-05-18T04:02:20.660Z,65.88
2019-05-18T04:04:51.875Z,65.68
2019-05-18T04:07:20.604Z,65.01
2019-05-18T04:09:55.857Z,66.12
2019-05-18T04:12:31.554Z,65.48
2019-05-18T04:15:01.986Z,65.27
2019-05-18T04:17:30.668Z,62.86
2019-05-18T04:20:00.777Z,64.36
2019-05-18T04:22:29.552Z,64.80
2019-05-18T04:25:04.347Z,63.20
2019-05-18T04:27:33.110Z,63.62
2019-05-18T04:30:06.184Z,63.36
2019-05-18T04:32:37.926Z,63.44
2019-05-18T04:35:09.672Z,62.34
2019-05-18T04:37:38.434Z,58.33
2019-05-18T04:40:09.192Z,58.65
2019-05-18T04:42:37.828Z,59.19
2019-05-18T04:45:13.371Z,59.79
2019-05-18T04:47:48.490Z,61.32
2019-05-18T04:50:16.042Z,61.97
2019-05-18T04:52:46.225Z,62.35
2019-05-18T04:55:14.894Z,64.57
2019-05-18T04:57:43.544Z,61.76
2019-05-18T05:00:12.747Z,61.96
2019-05-18T05:02:44.136Z,62.71
2019-05-18T05:05:17.061Z,60.97
2019-05-18T05:07:47.012Z,58.19
2019-05-18T05:10:15.943Z,55.24
2019-05-18T05:12:47.743Z,54.45
2019-05-18T05:15:16.446Z,52.99
2019-05-18T05:17:45.171Z,52.96
2019-05-18T05:20:19.595Z,54.29
2019-05-18T05:22:44.605Z,53.49
2019-05-18T05:25:13.307Z,52.80
2019-05-18T05:27:42.112Z,53.80
2019-05-18T05:30:15.961Z,54.44
2019-05-18T05:32:46.917Z,54.18
2019-05-18T05:35:15.789Z,53.53
2019-05-18T05:37:44.464Z,54.05
2019-05-18T05:40:13.399Z,53.79
2019-05-18T05:42:42.212Z,52.60
2019-05-18T05:45:11.359Z,52.54
2019-05-18T05:47:39.952Z,51.91
2019-05-18T05:50:15.920Z,51.81
2019-05-18T05:52:51.574Z,51.49
2019-05-18T05:55:22.225Z,51.24
2019-05-18T05:57:53.142Z,50.42
2019-05-18T06:00:22.290Z,50.57
2019-05-18T06:02:53.136Z,49.77
2019-05-18T06:05:27.479Z,51.37
2019-05-18T06:07:56.193Z,51.62
2019-05-18T06:10:24.861Z,52.22
2019-05-18T06:12:53.604Z,52.12
2019-05-18T06:15:22.284Z,52.12
2019-05-18T06:17:54.032Z,50.53
2019-05-18T06:20:24.272Z,51.07
2019-05-18T06:23:00.565Z,50.90
2019-05-18T06:25:34.084Z,49.37
2019-05-18T06:28:03.790Z,49.56
2019-05-18T06:30:32.516Z,48.30
2019-05-18T06:33:02.615Z,49.03
2019-05-18T06:35:35.378Z,49.21
2019-05-18T06:38:08.272Z,47.85
2019-05-18T06:40:36.907Z,47.41
2019-05-18T06:43:05.733Z,47.14
2019-05-18T06:45:34.497Z,47.58
2019-05-18T06:48:07.475Z,47.65
2019-05-18T06:50:37.732Z,48.33
2019-05-18T06:53:09.034Z,49.59
2019-05-18T06:56:02.039Z,49.58
2019-05-18T06:58:31.301Z,47.99
2019-05-18T07:01:12.209Z,47.77
2019-05-18T07:03:40.918Z,47.53
2019-05-18T07:06:16.523Z,47.71
2019-05-18T07:08:45.253Z,50.54
2019-05-18T07:11:16.511Z,49.42
2019-05-18T07:13:51.301Z,48.52
2019-05-18T07:16:32.385Z,47.90
2019-05-18T07:19:01.112Z,46.54
2019-05-18T07:21:29.852Z,46.58
2019-05-18T07:23:59.752Z,46.88
2019-05-18T07:26:28.708Z,46.22
2019-05-18T07:28:57.585Z,46.95
2019-05-18T07:31:26.235Z,47.15
2019-05-18T07:33:56.583Z,46.70
2019-05-18T07:36:28.000Z,46.65
2019-05-18T07:38:56.644Z,46.62
2019-05-18T07:41:28.418Z,46.60
2019-05-18T07:43:57.100Z,46.13
2019-05-18T07:46:28.696Z,46.14
2019-05-18T07:48:57.506Z,45.85
2019-05-18T07:51:36.686Z,46.27
2019-05-18T07:53:56.609Z,46.19
2019-05-18T07:56:28.083Z,46.36
2019-05-18T07:59:02.010Z,45.34
2019-05-18T08:01:30.705Z,45.68
2019-05-18T08:04:02.827Z,45.04
2019-05-18T08:06:31.492Z,44.02
2019-05-18T08:09:00.135Z,44.85
2019-05-18T08:11:28.849Z,44.53
2019-05-18T08:14:04.080Z,45.31
2019-05-18T08:16:32.920Z,44.49
2019-05-18T08:19:01.637Z,44.43
2019-05-18T08:21:30.448Z,44.48
2019-05-18T08:24:02.241Z,43.00
2019-05-18T08:26:31.089Z,43.10
2019-05-18T08:28:59.839Z,42.75
2019-05-18T08:31:37.055Z,41.61
2019-05-18T08:34:05.879Z,43.74
2019-05-18T08:36:36.156Z,42.89
2019-05-18T08:39:06.309Z,42.33
2019-05-18T08:41:37.654Z,43.04
2019-05-18T08:44:09.278Z,44.39
2019-05-18T08:46:40.637Z,43.14
2019-05-18T08:49:09.370Z,42.97
2019-05-18T08:51:39.848Z,42.46
2019-05-18T08:54:15.179Z,42.81
2019-05-18T08:56:43.686Z,43.25
2019-05-18T08:59:16.435Z,42.31
2019-05-18T09:01:45.115Z,40.58
2019-05-18T09:04:15.273Z,41.37
2019-05-18T09:06:45.122Z,42.42
2019-05-18T09:09:13.811Z,42.75
2019-05-18T09:11:45.404Z,42.66
2019-05-18T09:14:14.088Z,39.70
2019-05-18T09:16:42.738Z,40.47
2019-05-18T09:19:11.446Z,40.48
2019-05-18T09:21:40.237Z,41.22
2019-05-18T09:24:09.069Z,38.08
2019-05-18T09:26:37.881Z,39.67
2019-05-18T09:29:06.596Z,40.52
2019-05-18T09:31:35.365Z,38.61
2019-05-18T09:34:04.219Z,40.20
2019-05-18T09:36:32.934Z,39.67
2019-05-18T09:39:01.685Z,40.14
2019-05-18T09:41:30.423Z,38.35
2019-05-18T09:43:58.995Z,37.54
2019-05-18T09:46:27.867Z,37.97
2019-05-18T09:48:56.717Z,37.91
2019-05-18T09:51:25.571Z,37.88
2019-05-18T09:53:54.195Z,37.41
2019-05-18T09:56:22.906Z,37.03
2019-05-18T09:58:51.678Z,36.44
2019-05-18T10:01:20.499Z,36.21
2019-05-18T10:03:49.457Z,35.03
2019-05-18T10:06:18.132Z,34.57
2019-05-18T10:08:46.781Z,33.74
2019-05-18T10:11:15.701Z,34.91
2019-05-18T10:13:45.926Z,34.92
2019-05-18T10:16:14.766Z,33.49
2019-05-18T10:18:43.507Z,34.32
2019-05-18T10:21:12.291Z,31.74
2019-05-18T10:23:40.999Z,29.39
2019-05-18T10:26:09.780Z,28.99
2019-05-18T10:28:38.647Z,30.06
2019-05-18T10:31:07.377Z,28.29
2019-05-18T10:33:36.240Z,28.95
2019-05-18T10:36:05.184Z,30.19
2019-05-18T10:38:33.777Z,29.80
2019-05-18T10:41:02.817Z,30.62
2019-05-18T10:43:34.318Z,31.86
2019-05-18T10:46:03.155Z,29.88
2019-05-18T10:48:31.928Z,30.42
2019-05-18T10:51:00.660Z,29.35
2019-05-18T10:53:29.397Z,29.52
2019-05-18T10:55:58.194Z,29.80
2019-05-18T10:58:27.004Z,31.17
2019-05-18T11:00:55.748Z,30.18
2019-05-18T11:03:24.601Z,29.03
2019-05-18T11:05:53.345Z,29.53
2019-05-18T11:08:22.154Z,29.56
2019-05-18T11:10:50.917Z,28.74
2019-05-18T11:13:19.744Z,30.91
2019-05-18T11:15:48.522Z,29.70
2019-05-18T11:18:17.229Z,29.39
2019-05-18T11:20:45.976Z,28.82
2019-05-18T11:23:14.644Z,27.98
2019-05-18T11:25:43.398Z,28.73
2019-05-18T11:28:12.169Z,28.41
2019-05-18T11:30:40.919Z,28.37
2019-05-18T11:33:09.693Z,28.95
2019-05-18T11:35:38.514Z,29.26
2019-05-18T11:38:07.234Z,28.26
2019-05-18T11:40:35.916Z,28.63
2019-05-18T11:43:04.622Z,27.81
2019-05-18T11:45:33.917Z,29.29
2019-05-18T11:48:02.596Z,29.18
2019-05-18T11:50:31.364Z,29.99
2019-05-18T11:53:00.122Z,30.45
2019-05-18T11:55:28.782Z,29.59
2019-05-18T11:57:57.487Z,28.38
2019-05-18T12:00:26.695Z,27.92
2019-05-18T12:02:55.444Z,28.26
2019-05-18T12:05:24.162Z,28.24
2019-05-18T12:07:52.742Z,28.29
2019-05-18T12:10:21.677Z,28.82
2019-05-18T12:12:50.422Z,28.00
2019-05-18T12:15:19.396Z,27.50
2019-05-18T12:17:48.198Z,28.51
2019-05-18T12:20:17.480Z,28.78
2019-05-18T12:22:46.136Z,28.34
2019-05-18T12:25:14.902Z,28.16
2019-05-18T12:27:45.111Z,28.59
2019-05-18T12:30:14.739Z,28.21
2019-05-18T12:32:43.526Z,28.10
2019-05-18T12:35:12.835Z,28.22
2019-05-18T12:37:41.478Z,28.02
2019-05-18T12:40:10.848Z,28.22
2019-05-18T12:42:39.572Z,29.14
2019-05-18T12:45:09.529Z,29.21
2019-05-18T12:47:38.185Z,28.12
2019-05-18T12:50:08.222Z,29.01
2019-05-18T12:52:37.087Z,28.98
2019-05-18T12:55:07.480Z,29.05
2019-05-18T12:57:36.673Z,29.41
2019-05-18T13:00:10.662Z,29.02
2019-05-18T13:02:39.393Z,28.92
2019-05-18T13:05:09.204Z,28.96
2019-05-18T13:07:37.845Z,28.72
2019-05-18T13:10:09.413Z,28.51
2019-05-18T13:12:38.288Z,28.97
2019-05-18T13:15:09.187Z,29.41
2019-05-18T13:17:38.011Z,30.36
2019-05-18T13:20:09.774Z,29.59
2019-05-18T13:22:38.430Z,29.51
2019-05-18T13:25:08.062Z,28.82
2019-05-18T13:27:39.878Z,28.68
2019-05-18T13:30:08.860Z,28.46
2019-05-18T13:32:40.240Z,29.35
2019-05-18T13:35:09.541Z,29.27
2019-05-18T13:37:38.196Z,28.61
2019-05-18T13:40:07.930Z,28.96
2019-05-18T13:42:36.618Z,29.33
2019-05-18T13:45:09.516Z,28.75
2019-05-18T13:47:38.236Z,28.97
2019-05-18T13:50:07.749Z,28.94
2019-05-18T13:52:36.455Z,29.21
2019-05-18T13:55:06.607Z,28.52
2019-05-18T13:57:35.669Z,29.30
2019-05-18T14:00:07.023Z,28.74
2019-05-18T14:02:35.664Z,29.53
2019-05-18T14:05:05.425Z,29.85
2019-05-18T14:07:34.158Z,29.47
2019-05-18T14:10:02.864Z,29.77
2019-05-18T14:12:33.073Z,28.79
2019-05-18T14:15:01.726Z,28.40
2019-05-18T14:17:30.442Z,28.82
2019-05-18T14:19:59.245Z,28.81
2019-05-18T14:22:27.894Z,28.81
2019-05-18T14:24:56.552Z,28.92
2019-05-18T14:27:25.242Z,28.12
2019-05-18T14:29:54.003Z,29.08
2019-05-18T14:32:22.660Z,29.39
2019-05-18T14:34:51.276Z,29.79
2019-05-18T14:37:19.999Z,30.39
2019-05-18T14:39:48.707Z,29.83
2019-05-18T14:42:17.413Z,28.96
2019-05-18T14:44:46.070Z,28.99
2019-05-18T14:47:14.847Z,29.72
2019-05-18T14:49:43.628Z,28.60
2019-05-18T14:52:12.478Z,29.42
2019-05-18T14:54:41.124Z,29.32
2019-05-18T14:57:09.821Z,29.98
2019-05-18T14:59:38.482Z,29.46
2019-05-18T15:02:07.142Z,29.74
2019-05-18T15:04:35.862Z,29.91
2019-05-18T15:07:04.522Z,30.66
2019-05-18T15:09:33.162Z,29.90
2019-05-18T15:12:02.081Z,30.48
2019-05-18T15:14:30.898Z,30.31
2019-05-18T15:16:59.556Z,30.84
2019-05-18T15:19:28.202Z,30.71
2019-05-18T15:21:57.240Z,31.23
2019-05-18T15:24:25.885Z,31.32
2019-05-18T15:26:54.707Z,31.47
2019-05-18T15:29:23.393Z,31.67
2019-05-18T15:31:52.110Z,31.89
2019-05-18T15:34:23.804Z,31.79
2019-05-18T15:36:52.549Z,31.46
2019-05-18T15:39:21.281Z,30.38
2019-05-18T15:41:49.940Z,31.12
2019-05-18T15:44:18.759Z,31.06
2019-05-18T15:46:47.475Z,31.18
2019-05-18T15:49:16.206Z,31.17
2019-05-18T15:51:44.990Z,31.15
2019-05-18T15:54:13.638Z,30.86
2019-05-18T15:56:47.880Z,30.89
2019-05-18T15:59:16.659Z,31.06
2019-05-18T16:01:45.377Z,31.02
2019-05-18T16:04:14.086Z,31.09
2019-05-18T16:06:42.862Z,31.12
2019-05-18T16:09:11.536Z,31.44
2019-05-18T16:11:40.264Z,30.85
2019-05-18T16:14:09.033Z,30.97
2019-05-18T16:16:37.684Z,31.38
2019-05-18T16:19:09.334Z,31.69
2019-05-18T16:21:38.078Z,31.08
2019-05-18T16:24:06.795Z,31.66
2019-05-18T16:26:35.565Z,31.80
2019-05-18T16:29:04.251Z,32.12
2019-05-18T16:31:33.002Z,32.09
2019-05-18T16:34:01.848Z,31.93
2019-05-18T16:36:34.547Z,32.18
2019-05-18T16:39:06.215Z,32.08
2019-05-18T16:41:34.999Z,31.70
2019-05-18T16:44:03.748Z,32.26
2019-05-18T16:46:32.435Z,32.20
2019-05-18T16:49:08.757Z,32.71
2019-05-18T16:51:37.454Z,32.56
2019-05-18T16:54:06.165Z,32.65
2019-05-18T16:56:35.547Z,32.60
2019-05-18T16:59:04.248Z,32.73
2019-05-18T17:01:33.018Z,32.83
2019-05-18T17:04:03.223Z,32.91
2019-05-18T17:06:31.867Z,33.08
2019-05-18T17:09:00.517Z,33.33
2019-05-18T17:11:38.165Z,33.41
2019-05-18T17:14:09.751Z,33.63
2019-05-18T17:16:38.477Z,33.90
2019-05-18T17:19:08.675Z,33.97
2019-05-18T17:21:40.408Z,33.99
2019-05-18T17:24:09.139Z,34.14
2019-05-18T17:26:51.769Z,34.38
2019-05-18T17:29:19.296Z,34.71
2019-05-18T17:31:48.118Z,34.72
2019-05-18T17:34:16.743Z,34.77
2019-05-18T17:36:45.554Z,34.94
2019-05-18T17:39:14.294Z,35.23
2019-05-18T17:41:43.006Z,35.58
2019-05-18T17:44:11.685Z,36.07
2019-05-18T17:46:40.452Z,35.83
2019-05-18T17:49:25.593Z,36.32
2019-05-18T17:51:39.549Z,36.62
2019-05-18T17:57:08.114Z,38.01
2019-05-18T17:59:28.334Z,40.34
2019-05-18T18:01:56.980Z,41.32
2019-05-18T18:04:37.653Z,42.00
2019-05-18T18:07:06.375Z,42.60
2019-05-18T18:09:35.099Z,43.06
2019-05-18T18:12:06.885Z,43.58
2019-05-18T18:14:35.635Z,43.63
2019-05-18T18:17:04.424Z,44.15
2019-05-18T18:19:33.122Z,44.06
2019-05-18T18:22:01.839Z,43.99
2019-05-18T18:24:30.569Z,43.95
2019-05-18T18:26:59.295Z,43.75
2019-05-18T18:29:27.940Z,43.55
2019-05-18T18:31:56.601Z,43.11
2019-05-18T18:34:25.471Z,42.74
2019-05-18T18:36:54.224Z,42.91
2019-05-18T18:39:22.941Z,42.99
2019-05-18T18:41:51.707Z,43.26
2019-05-18T18:44:20.426Z,43.57
2019-05-18T18:46:49.019Z,43.34
2019-05-18T18:49:17.737Z,43.28
2019-05-18T18:51:46.475Z,43.20
2019-05-18T18:54:15.173Z,43.28
2019-05-18T18:56:43.941Z,43.56
2019-05-18T18:59:12.590Z,43.45
2019-05-18T19:01:41.240Z,43.48
2019-05-18T19:04:09.999Z,43.87
2019-05-18T19:06:38.745Z,43.63
2019-05-18T19:09:07.560Z,43.91
2019-05-18T19:11:36.269Z,43.69
2019-05-18T19:14:05.639Z,44.20
2019-05-18T19:16:34.385Z,44.38
2019-05-18T19:19:03.172Z,44.40
2019-05-18T19:21:31.842Z,44.51
2019-05-18T19:24:00.541Z,44.62
2019-05-18T19:26:29.402Z,44.74
2019-05-18T19:28:58.151Z,44.54
2019-05-18T19:31:26.798Z,44.65
2019-05-18T19:33:55.476Z,44.04
2019-05-18T19:36:24.288Z,44.63
2019-05-18T19:38:53.019Z,44.55
2019-05-18T19:41:22.035Z,44.77
2019-05-18T19:43:50.660Z,44.84
2019-05-18T19:46:19.390Z,45.01
2019-05-18T19:48:48.258Z,46.20
2019-05-18T19:51:16.923Z,46.07
2019-05-18T19:53:45.544Z,46.07
2019-05-18T19:56:14.303Z,45.64
2019-05-18T19:58:42.979Z,45.59
2019-05-18T20:01:11.649Z,45.60
2019-05-18T20:03:40.268Z,46.19
2019-05-18T20:06:08.998Z,46.35
2019-05-18T20:08:37.747Z,46.02
2019-05-18T20:11:06.382Z,46.26
2019-05-18T20:13:35.094Z,46.47
2019-05-18T20:16:03.759Z,47.06
2019-05-18T20:18:32.466Z,47.06
2019-05-18T20:21:01.212Z,47.52
2019-05-18T20:23:30.024Z,47.58
2019-05-18T20:25:58.630Z,48.15
2019-05-18T20:28:27.371Z,48.43
2019-05-18T20:30:56.021Z,48.43
2019-05-18T20:33:24.808Z,48.13
2019-05-18T20:35:53.453Z,48.34
2019-05-18T20:38:22.094Z,47.66
2019-05-18T20:40:50.853Z,48.19
2019-05-18T20:43:19.600Z,47.64
2019-05-18T20:45:48.264Z,47.40
2019-05-18T20:48:17.180Z,47.23
2019-05-18T20:50:45.941Z,47.47
2019-05-18T20:53:14.671Z,47.47
2019-05-18T20:55:43.524Z,47.34
2019-05-18T20:58:12.188Z,47.77
2019-05-18T21:00:40.862Z,47.77
2019-05-18T21:03:09.568Z,47.74
2019-05-18T21:05:38.285Z,47.44
2019-05-18T21:08:07.014Z,47.83
2019-05-18T21:10:35.673Z,47.60
2019-05-18T21:13:04.334Z,47.55
2019-05-18T21:15:33.112Z,47.23
2019-05-18T21:18:01.857Z,48.07
2019-05-18T21:20:30.500Z,47.83
2019-05-18T21:22:59.233Z,48.99
2019-05-18T21:25:27.985Z,48.99
2019-05-18T21:27:56.699Z,50.99
2019-05-18T21:30:25.404Z,48.08
2019-05-18T21:32:54.126Z,48.54
2019-05-18T21:35:22.811Z,48.32
2019-05-18T21:37:51.498Z,47.67
2019-05-18T21:40:20.314Z,47.70
2019-05-18T21:42:49.045Z,48.03
2019-05-18T21:45:17.811Z,48.77
2019-05-18T21:47:46.465Z,49.19
2019-05-18T21:50:15.203Z,50.81
2019-05-18T21:52:44.003Z,52.54
2019-05-18T21:55:12.706Z,53.61
2019-05-18T21:57:41.368Z,53.50
2019-05-18T22:00:10.899Z,53.48
2019-05-18T22:02:39.633Z,53.73
2019-05-18T22:05:08.526Z,53.90
2019-05-18T22:07:37.281Z,53.99
2019-05-18T22:10:07.712Z,54.01
2019-05-18T22:12:36.431Z,54.96
2019-05-18T22:15:06.945Z,55.10
2019-05-18T22:17:37.234Z,55.30
2019-05-18T22:20:09.131Z,55.07
2019-05-18T22:22:37.799Z,54.74
2019-05-18T22:25:06.453Z,53.09
2019-05-18T22:27:35.188Z,52.61
2019-05-18T22:30:03.906Z,52.14
2019-05-18T22:32:32.628Z,52.57
2019-05-18T22:35:01.354Z,52.51
2019-05-18T22:37:30.133Z,52.73
2019-05-18T22:39:58.787Z,52.73
2019-05-18T22:42:27.369Z,52.32
2019-05-18T22:44:56.110Z,51.52
2019-05-18T22:47:24.826Z,51.29
2019-05-18T22:49:53.609Z,51.09
2019-05-18T22:52:22.259Z,50.45
2019-05-18T22:54:50.942Z,49.91
2019-05-18T22:57:19.720Z,49.91
2019-05-18T22:59:48.437Z,50.57
2019-05-18T23:02:17.170Z,50.19
2019-05-18T23:04:46.019Z,50.68
2019-05-18T23:07:14.594Z,50.68
2019-05-18T23:09:43.329Z,50.43
2019-05-18T23:12:12.087Z,51.12
2019-05-18T23:14:40.764Z,51.66
2019-05-18T23:17:09.428Z,51.66
2019-05-18T23:19:38.206Z,51.41
2019-05-18T23:22:06.906Z,51.22
2019-05-18T23:24:35.588Z,52.39
2019-05-18T23:27:04.279Z,54.56
2019-05-18T23:29:32.990Z,54.93
2019-05-18T23:32:01.725Z,56.38
2019-05-18T23:34:30.518Z,56.68
2019-05-18T23:36:59.273Z,56.69
2019-05-18T23:39:27.976Z,56.97
2019-05-18T23:41:56.737Z,57.26
2019-05-18T23:44:25.472Z,57.04
2019-05-18T23:46:54.216Z,57.50
2019-05-18T23:49:22.920Z,57.57
2019-05-18T23:51:51.567Z,58.69
2019-05-18T23:54:20.294Z,58.53
2019-05-18T23:56:49.103Z,58.13
2019-05-18T23:59:17.773Z,58.03
